Time;durP1;ratioP1;P1;durP2;ratioP2;P2;SDS_P1;SDS_P2;PMS_P1;PMS_P2;Temp;Humidity;BMP_temperature;BMP_pressure;BME280_temperature;BME280_humidity;BME280_pressure;Samples;Min_cycle;Max_cycle;Signal;HPM_P1;HPM_P2
2020/12/06 00:00:12;;;;;;;16.90;9.98;;;3.60;99.90;;;;;;5083908;28;20097;-49
2020/12/06 00:02:38;;;;;;;17.02;9.23;;;3.70;99.90;;;;;;5080696;28;20047;-50
2020/12/06 00:05:07;;;;;;;15.13;8.48;;;3.50;99.90;;;;;;5063679;28;20474;-49
2020/12/06 00:07:38;;;;;;;15.50;8.48;;;3.50;99.90;;;;;;5067386;28;20482;-49
2020/12/06 00:10:09;;;;;;;15.73;8.50;;;3.30;99.90;;;;;;5080224;28;20039;-51
2020/12/06 00:12:39;;;;;;;14.65;8.48;;;3.20;99.90;;;;;;5066764;28;20060;-52
2020/12/06 00:15:09;;;;;;;17.45;9.43;;;3.00;99.90;;;;;;5063266;28;20023;-49
2020/12/06 00:17:36;;;;;;;19.42;12.30;;;3.00;99.90;;;;;;5067521;28;20036;-51
2020/12/06 00:20:07;;;;;;;22.83;13.00;;;2.80;99.90;;;;;;5083430;28;20050;-52
2020/12/06 00:22:33;;;;;;;20.83;12.13;;;2.70;99.90;;;;;;5076256;28;20051;-52
2020/12/06 00:24:58;;;;;;;19.58;10.73;;;2.70;99.90;;;;;;5063365;28;20441;-49
2020/12/06 00:27:24;;;;;;;16.55;9.35;;;2.70;99.90;;;;;;5064840;28;20028;-51
2020/12/06 00:29:49;;;;;;;16.77;10.13;;;2.70;99.90;;;;;;5068027;28;20040;-50
2020/12/06 00:32:15;;;;;;;22.85;11.38;;;2.70;99.90;;;;;;5074255;28;20561;-49
2020/12/06 00:34:41;;;;;;;24.27;13.38;;;2.80;99.90;;;;;;5083950;28;20054;-50
2020/12/06 00:37:07;;;;;;;27.75;13.43;;;2.60;99.90;;;;;;5095855;28;20024;-50
2020/12/06 00:39:34;;;;;;;21.42;12.07;;;2.60;99.90;;;;;;5093680;28;20052;-50
2020/12/06 00:42:00;;;;;;;17.15;10.02;;;2.60;99.90;;;;;;5087309;28;20020;-51
2020/12/06 00:44:25;;;;;;;17.23;9.50;;;2.60;99.90;;;;;;5086883;28;20028;-52
2020/12/06 00:46:51;;;;;;;16.23;8.98;;;2.80;99.90;;;;;;5085257;28;20040;-51
2020/12/06 00:49:16;;;;;;;13.73;8.32;;;2.70;99.90;;;;;;5076322;28;20075;-50
2020/12/06 00:51:42;;;;;;;18.80;9.15;;;2.80;99.90;;;;;;5067211;28;20058;-49
2020/12/06 00:54:08;;;;;;;13.13;7.55;;;2.80;99.90;;;;;;5067261;28;20039;-51
2020/12/06 00:56:33;;;;;;;13.25;7.63;;;2.80;99.90;;;;;;5067056;28;20028;-49
2020/12/06 00:58:59;;;;;;;11.02;6.85;;;2.70;99.90;;;;;;5066767;28;20113;-49
2020/12/06 01:01:25;;;;;;;23.65;12.60;;;2.70;99.90;;;;;;5067246;28;20501;-50
2020/12/06 01:03:51;;;;;;;21.10;11.63;;;2.50;99.90;;;;;;5068303;28;20025;-50
2020/12/06 01:06:18;;;;;;;18.55;10.18;;;2.50;99.90;;;;;;5069950;28;20497;-51
2020/12/06 01:08:45;;;;;;;17.48;9.93;;;2.40;99.90;;;;;;5068472;28;20033;-50
2020/12/06 01:11:14;;;;;;;19.23;10.57;;;2.50;99.90;;;;;;5068624;28;20339;-52
2020/12/06 01:13:41;;;;;;;14.38;8.45;;;2.50;99.90;;;;;;5067822;28;20471;-51
2020/12/06 01:16:08;;;;;;;20.67;11.10;;;2.60;99.90;;;;;;5068599;28;20025;-50
2020/12/06 01:18:33;;;;;;;19.70;10.90;;;2.60;99.90;;;;;;5068488;28;20502;-49
2020/12/06 01:20:59;;;;;;;18.75;9.93;;;2.40;99.90;;;;;;5068212;28;20035;-52
2020/12/06 01:23:25;;;;;;;18.05;10.52;;;2.50;99.90;;;;;;5068839;28;20479;-51
2020/12/06 01:25:50;;;;;;;16.20;8.95;;;2.50;99.90;;;;;;5069007;28;20033;-53
2020/12/06 01:28:16;;;;;;;16.65;8.60;;;2.30;99.90;;;;;;5069510;28;20025;-49
2020/12/06 01:30:42;;;;;;;16.95;8.45;;;2.30;99.90;;;;;;5068775;28;20481;-49
2020/12/06 01:33:09;;;;;;;14.25;8.48;;;2.40;99.90;;;;;;5068045;28;20059;-49
2020/12/06 01:35:34;;;;;;;13.27;7.03;;;2.30;99.90;;;;;;5067782;28;20036;-53
2020/12/06 01:38:00;;;;;;;11.45;5.95;;;2.40;99.90;;;;;;5066236;28;20418;-51
2020/12/06 01:40:27;;;;;;;11.88;6.63;;;2.40;99.90;;;;;;5068578;28;20505;-52
2020/12/06 01:42:53;;;;;;;10.27;5.75;;;2.50;99.90;;;;;;5078105;28;20024;-49
2020/12/06 01:45:19;;;;;;;10.60;6.10;;;2.50;99.90;;;;;;5088580;28;20020;-51
2020/12/06 01:47:45;;;;;;;26.20;13.77;;;2.50;99.90;;;;;;5088441;28;20028;-49
2020/12/06 01:50:12;;;;;;;26.90;14.80;;;2.40;99.90;;;;;;5086587;28;20059;-50
2020/12/06 01:52:42;;;;;;;25.38;13.52;;;2.40;99.90;;;;;;5075642;28;20090;-52
2020/12/06 01:55:12;;;;;;;22.52;11.57;;;2.50;99.90;;;;;;5066766;28;20068;-51
2020/12/06 01:57:39;;;;;;;16.58;10.43;;;2.60;99.90;;;;;;5068407;28;20063;-50
2020/12/06 02:00:09;;;;;;;15.95;9.30;;;2.60;99.90;;;;;;5067926;28;20042;-49
2020/12/06 02:02:35;;;;;;;13.00;8.07;;;2.80;99.90;;;;;;5067940;28;20013;-50
2020/12/06 02:05:05;;;;;;;14.18;7.95;;;2.80;99.90;;;;;;5067749;28;20033;-52
2020/12/06 02:07:35;;;;;;;15.80;9.35;;;2.70;99.90;;;;;;5068040;28;20078;-52
2020/12/06 02:10:00;;;;;;;15.98;9.20;;;2.50;99.90;;;;;;5067448;28;20682;-51
2020/12/06 02:12:26;;;;;;;14.57;8.63;;;2.10;99.90;;;;;;5074327;28;20062;-52
2020/12/06 02:14:52;;;;;;;15.70;8.27;;;2.30;99.90;;;;;;5087753;28;20055;-49
2020/12/06 02:17:18;;;;;;;14.57;8.30;;;2.40;99.90;;;;;;5088682;28;20073;-50
2020/12/06 02:19:44;;;;;;;13.57;8.05;;;2.60;99.90;;;;;;5087691;28;20027;-51
2020/12/06 02:22:09;;;;;;;17.23;9.05;;;2.70;99.90;;;;;;5081388;28;20077;-52
2020/12/06 02:24:35;;;;;;;18.90;10.20;;;2.60;99.90;;;;;;5079482;28;20016;-50
2020/12/06 02:27:01;;;;;;;17.90;10.02;;;2.70;99.90;;;;;;5087637;28;20031;-52
2020/12/06 02:29:26;;;;;;;17.42;9.23;;;2.70;99.90;;;;;;5079863;28;20039;-49
2020/12/06 02:31:52;;;;;;;15.30;8.90;;;2.80;99.90;;;;;;5067198;28;20147;-51
2020/12/06 02:34:18;;;;;;;18.83;9.38;;;2.70;99.90;;;;;;5067938;28;20024;-49
2020/12/06 02:36:44;;;;;;;15.18;8.70;;;2.80;99.90;;;;;;5067372;28;20024;-51
2020/12/06 02:39:13;;;;;;;15.20;8.50;;;2.90;99.90;;;;;;5067072;28;20051;-49
2020/12/06 02:41:44;;;;;;;13.35;7.72;;;2.90;99.90;;;;;;5067386;28;20025;-52
2020/12/06 02:44:10;;;;;;;14.57;8.20;;;2.90;99.90;;;;;;5066808;28;20624;-52
2020/12/06 02:46:37;;;;;;;11.23;6.97;;;2.90;99.90;;;;;;5067221;28;20547;-52
2020/12/06 02:49:03;;;;;;;13.32;7.55;;;3.00;99.90;;;;;;5066443;28;20036;-52
2020/12/06 02:51:29;;;;;;;13.20;7.85;;;3.00;99.90;;;;;;5066405;28;20067;-52
2020/12/06 02:53:55;;;;;;;13.05;7.63;;;2.90;99.90;;;;;;5066768;28;20087;-51
2020/12/06 02:56:21;;;;;;;13.15;7.50;;;2.70;99.90;;;;;;5067273;28;20085;-51
2020/12/06 02:58:47;;;;;;;11.32;6.90;;;2.80;99.90;;;;;;5066927;28;20088;-51
2020/12/06 03:01:13;;;;;;;10.75;6.22;;;2.80;99.90;;;;;;5066789;28;20055;-50
2020/12/06 03:03:39;;;;;;;9.57;6.28;;;2.80;99.90;;;;;;5066694;28;20048;-52
2020/12/06 03:06:05;;;;;;;9.85;6.00;;;2.90;99.90;;;;;;5066730;28;20395;-51
2020/12/06 03:08:31;;;;;;;10.60;6.22;;;3.00;99.90;;;;;;5066149;28;20402;-48
2020/12/06 03:10:57;;;;;;;10.27;6.28;;;3.10;99.90;;;;;;5066511;28;20045;-52
2020/12/06 03:13:23;;;;;;;10.15;6.00;;;3.00;99.90;;;;;;5075238;28;20142;-52
2020/12/06 03:15:49;;;;;;;9.52;5.20;;;3.00;99.90;;;;;;5087465;28;20023;-52
2020/12/06 03:18:14;;;;;;;8.63;5.10;;;3.10;99.90;;;;;;5086544;28;20375;-51
2020/12/06 03:20:40;;;;;;;9.18;5.35;;;3.00;99.90;;;;;;5086865;28;20024;-52
2020/12/06 03:23:06;;;;;;;13.32;8.07;;;3.00;99.90;;;;;;5085105;28;20446;-52
2020/12/06 03:25:31;;;;;;;12.88;7.80;;;3.00;99.90;;;;;;5086876;28;20116;-52
2020/12/06 03:27:57;;;;;;;11.80;7.10;;;3.00;99.90;;;;;;5086246;28;20036;-49
2020/12/06 03:30:23;;;;;;;12.60;6.97;;;3.00;99.90;;;;;;5086775;28;20039;-51
2020/12/06 03:32:48;;;;;;;10.48;6.35;;;2.90;99.90;;;;;;5084280;28;20032;-51
2020/12/06 03:35:14;;;;;;;10.23;5.97;;;3.00;99.90;;;;;;5066265;28;20031;-53
2020/12/06 03:37:39;;;;;;;11.10;5.65;;;2.90;99.90;;;;;;5066512;28;20029;-52
2020/12/06 03:40:05;;;;;;;10.73;5.63;;;2.80;99.90;;;;;;5064851;28;20020;-50
2020/12/06 03:42:31;;;;;;;11.35;5.75;;;2.80;99.90;;;;;;5066413;28;20033;-51
2020/12/06 03:44:56;;;;;;;8.27;4.90;;;2.80;99.90;;;;;;5065360;28;20028;-50
2020/12/06 03:47:22;;;;;;;10.13;5.70;;;2.80;99.90;;;;;;5066132;28;20031;-50
2020/12/06 03:49:49;;;;;;;9.57;5.80;;;2.70;99.90;;;;;;5066858;28;20035;-53
2020/12/06 03:52:14;;;;;;;9.27;6.03;;;2.70;99.90;;;;;;5066203;28;20052;-49
2020/12/06 03:54:40;;;;;;;11.73;6.20;;;2.60;99.90;;;;;;5065597;28;20459;-49
2020/12/06 03:57:05;;;;;;;10.05;6.15;;;2.50;99.90;;;;;;5065632;28;20128;-49
2020/12/06 03:59:31;;;;;;;9.55;5.47;;;2.50;99.90;;;;;;5066164;28;20052;-51
2020/12/06 04:01:57;;;;;;;8.30;4.72;;;2.40;99.90;;;;;;5064930;28;20024;-52
2020/12/06 04:04:22;;;;;;;8.65;5.18;;;2.50;99.90;;;;;;5066117;28;20036;-50
2020/12/06 04:06:48;;;;;;;10.98;6.78;;;2.60;99.90;;;;;;5066806;28;20039;-49
2020/12/06 04:09:14;;;;;;;9.25;5.97;;;2.50;99.90;;;;;;5065390;28;20104;-49
2020/12/06 04:11:39;;;;;;;11.02;6.00;;;2.70;99.90;;;;;;5065977;28;20040;-49
2020/12/06 04:14:05;;;;;;;9.98;5.50;;;2.60;99.90;;;;;;5065796;28;20103;-49
2020/12/06 04:16:31;;;;;;;10.98;6.15;;;2.70;99.90;;;;;;5064104;28;20032;-49
2020/12/06 04:18:56;;;;;;;10.55;5.93;;;2.80;99.90;;;;;;5065786;28;20024;-48
2020/12/06 04:21:22;;;;;;;11.10;5.95;;;2.80;99.90;;;;;;5065927;28;20731;-51
2020/12/06 04:23:48;;;;;;;10.00;6.35;;;2.80;99.90;;;;;;5066539;28;20060;-51
2020/12/06 04:26:13;;;;;;;8.75;5.88;;;2.60;99.90;;;;;;5065647;28;20024;-48
2020/12/06 04:28:39;;;;;;;8.98;5.85;;;2.50;99.90;;;;;;5065794;28;20033;-49
2020/12/06 04:31:05;;;;;;;7.88;4.88;;;2.50;99.90;;;;;;5065646;28;20386;-52
2020/12/06 04:33:30;;;;;;;10.60;5.78;;;2.40;99.90;;;;;;5083562;28;20074;-52
2020/12/06 04:35:56;;;;;;;10.00;5.57;;;2.50;99.90;;;;;;5085937;28;20513;-51
2020/12/06 04:38:22;;;;;;;9.30;5.45;;;2.50;99.90;;;;;;5084525;28;20024;-49
2020/12/06 04:40:47;;;;;;;9.40;5.57;;;2.40;99.90;;;;;;5075434;28;20530;-48
2020/12/06 04:43:14;;;;;;;10.70;6.20;;;2.30;99.90;;;;;;5065494;28;20082;-51
2020/12/06 04:45:41;;;;;;;10.45;5.90;;;2.30;99.90;;;;;;5065068;28;20036;-50
2020/12/06 04:48:09;;;;;;;9.85;5.78;;;2.30;99.90;;;;;;5064085;28;20020;-51
2020/12/06 04:50:43;;;;;;;10.40;5.82;;;2.30;99.90;;;;;;5066154;28;20037;-51
2020/12/06 04:53:16;;;;;;;9.98;6.15;;;2.20;99.90;;;;;;5082557;28;20542;-49
2020/12/06 04:55:49;;;;;;;14.95;9.20;;;2.10;99.90;;;;;;5084139;28;20089;-51
2020/12/06 04:58:23;;;;;;;12.88;7.60;;;2.00;99.90;;;;;;5083829;28;20020;-49
2020/12/06 05:00:51;;;;;;;;;;;2.10;99.90;;;;;;5080072;28;20020;-49
2020/12/06 05:03:21;;;;;;;17.30;9.43;;;2.00;99.90;;;;;;5084775;28;19904;-50
2020/12/06 05:05:49;;;;;;;14.30;8.52;;;1.90;99.90;;;;;;5084515;28;20024;-52
2020/12/06 05:08:14;;;;;;;16.23;9.80;;;1.80;99.90;;;;;;5080331;28;20100;-49
2020/12/06 05:10:48;;;;;;;15.93;8.57;;;1.70;99.90;;;;;;5063445;28;20578;-51
2020/12/06 05:13:15;;;;;;;12.32;7.35;;;1.80;99.90;;;;;;5064182;28;20021;-49
2020/12/06 05:15:42;;;;;;;16.65;9.60;;;1.80;99.90;;;;;;5067204;28;20033;-51
2020/12/06 05:18:08;;;;;;;18.23;10.32;;;1.70;99.90;;;;;;5067186;28;20036;-51
2020/12/06 05:20:35;;;;;;;14.05;8.25;;;1.60;99.90;;;;;;5067064;28;20013;-51
2020/12/06 05:23:01;;;;;;;10.32;5.88;;;1.70;99.90;;;;;;5067292;28;20679;-52
2020/12/06 05:25:28;;;;;;;14.38;8.35;;;1.80;99.90;;;;;;5067326;28;20036;-52
2020/12/06 05:27:54;;;;;;;10.13;6.25;;;1.80;99.90;;;;;;5066615;28;20400;-49
2020/12/06 05:30:20;;;;;;;8.30;5.10;;;1.90;99.90;;;;;;5067645;28;20032;-50
2020/12/06 05:32:46;;;;;;;8.05;4.72;;;1.90;99.90;;;;;;5067323;28;20182;-50
2020/12/06 05:35:13;;;;;;;13.05;7.45;;;1.90;99.90;;;;;;5066398;28;20031;-52
2020/12/06 05:37:41;;;;;;;9.77;5.47;;;1.90;99.90;;;;;;5067551;28;20090;-52
2020/12/06 05:40:11;;;;;;;8.80;5.22;;;2.00;99.90;;;;;;5066766;28;20074;-53
2020/12/06 05:42:40;;;;;;;8.63;4.68;;;2.10;99.90;;;;;;5066899;28;20013;-49
2020/12/06 05:45:06;;;;;;;7.88;4.60;;;2.10;99.90;;;;;;5067017;28;20032;-50
2020/12/06 05:47:32;;;;;;;10.55;6.40;;;2.00;99.90;;;;;;5066745;28;20020;-52
2020/12/06 05:49:59;;;;;;;10.07;5.78;;;2.10;99.90;;;;;;5066340;28;20088;-51
2020/12/06 05:52:27;;;;;;;8.43;5.22;;;2.00;99.90;;;;;;5066973;28;20031;-52
2020/12/06 05:54:57;;;;;;;10.63;6.03;;;2.10;99.90;;;;;;5066517;28;20067;-52
2020/12/06 05:57:28;;;;;;;9.32;5.47;;;2.20;99.90;;;;;;5066244;28;20397;-49
2020/12/06 05:59:55;;;;;;;8.68;5.45;;;2.20;99.90;;;;;;5066415;28;20027;-50
2020/12/06 06:02:23;;;;;;;9.43;5.88;;;2.10;99.90;;;;;;5066342;28;20293;-50
2020/12/06 06:04:49;;;;;;;9.57;6.20;;;2.20;99.90;;;;;;5067025;28;20025;-49
2020/12/06 06:07:20;;;;;;;10.55;5.97;;;2.30;99.90;;;;;;5066275;28;20448;-49
2020/12/06 06:09:53;;;;;;;10.60;5.93;;;2.30;99.90;;;;;;5066416;28;20097;-50
2020/12/06 06:12:25;;;;;;;10.70;6.32;;;2.30;99.90;;;;;;5066990;28;20060;-52
2020/12/06 06:14:53;;;;;;;10.60;5.97;;;2.20;99.90;;;;;;5065822;28;20025;-51
2020/12/06 06:17:22;;;;;;;10.30;5.93;;;2.10;99.90;;;;;;5066776;28;20075;-50
2020/12/06 06:19:48;;;;;;;11.15;6.65;;;2.20;99.90;;;;;;5066855;28;20537;-49
2020/12/06 06:22:17;;;;;;;12.82;6.85;;;2.10;99.90;;;;;;5066111;28;20025;-48
2020/12/06 06:24:44;;;;;;;10.65;5.72;;;2.10;99.90;;;;;;5064407;28;20024;-49
2020/12/06 06:27:11;;;;;;;11.82;6.60;;;2.10;99.90;;;;;;5065813;28;20705;-50
2020/12/06 06:29:37;;;;;;;10.98;6.30;;;2.10;99.90;;;;;;5066128;28;20500;-52
2020/12/06 06:32:04;;;;;;;11.55;6.43;;;2.10;99.90;;;;;;5065149;28;20120;-51
2020/12/06 06:34:34;;;;;;;22.27;11.00;;;2.10;99.90;;;;;;5070468;28;20032;-50
2020/12/06 06:36:59;;;;;;;31.02;13.65;;;2.10;99.90;;;;;;5085748;28;20032;-50
2020/12/06 06:39:26;;;;;;;29.83;13.88;;;2.10;99.90;;;;;;5085866;28;20592;-52
2020/12/06 06:42:37;;;;;;;24.42;11.20;;;2.00;99.90;;;;;;5085739;28;20330;-49
2020/12/06 06:45:03;;;;;;;19.05;9.82;;;2.00;99.90;;;;;;5083176;28;20076;-49
2020/12/06 06:47:28;;;;;;;18.90;9.50;;;2.10;99.90;;;;;;5084723;28;20587;-49
2020/12/06 06:49:57;;;;;;;17.17;8.90;;;2.10;99.90;;;;;;5086023;28;20071;-49
2020/12/06 06:52:25;;;;;;;14.57;8.18;;;2.10;99.90;;;;;;5067600;28;20055;-49
2020/12/06 06:54:52;;;;;;;32.90;13.23;;;2.10;99.90;;;;;;5066747;28;20086;-52
2020/12/06 06:57:19;;;;;;;29.10;13.48;;;2.10;99.90;;;;;;5073052;28;20103;-49
2020/12/06 06:59:50;;;;;;;22.85;10.18;;;2.10;99.90;;;;;;5085267;28;20060;-49
2020/12/06 07:02:20;;;;;;;18.05;9.32;;;1.80;99.90;;;;;;5086366;28;20040;-52
2020/12/06 07:04:47;;;;;;;16.25;7.95;;;1.80;99.90;;;;;;5067133;28;20024;-49
2020/12/06 07:07:13;;;;;;;13.43;7.13;;;1.80;99.90;;;;;;5065196;28;20099;-49
2020/12/06 07:09:39;;;;;;;13.10;6.82;;;1.80;99.90;;;;;;5064779;28;20108;-52
2020/12/06 07:12:07;;;;;;;12.77;6.35;;;1.80;99.90;;;;;;5065967;28;20123;-49
2020/12/06 07:14:34;;;;;;;11.35;6.43;;;1.80;99.90;;;;;;5064747;28;20030;-50
2020/12/06 07:17:00;;;;;;;10.57;6.05;;;1.80;99.90;;;;;;5064802;28;20410;-48
2020/12/06 07:19:25;;;;;;;11.95;6.05;;;1.70;99.90;;;;;;5065260;28;20107;-52
2020/12/06 07:21:51;;;;;;;13.80;6.57;;;1.80;99.90;;;;;;5064539;28;20016;-49
2020/12/06 07:24:19;;;;;;;14.13;7.85;;;2.00;99.90;;;;;;5065726;28;20097;-48
2020/12/06 07:26:47;;;;;;;15.15;8.10;;;2.00;99.90;;;;;;5064996;28;20107;-49
2020/12/06 07:29:13;;;;;;;21.42;10.52;;;2.00;99.90;;;;;;5064167;28;20044;-49
2020/12/06 07:31:39;;;;;;;22.80;11.02;;;1.90;99.90;;;;;;5064638;28;20498;-49
2020/12/06 07:34:06;;;;;;;19.30;9.50;;;1.90;99.90;;;;;;5064725;28;20051;-48
2020/12/06 07:36:36;;;;;;;16.05;8.70;;;1.90;99.90;;;;;;5064160;28;20078;-48
2020/12/06 07:39:16;;;;;;;14.00;7.38;;;1.90;99.90;;;;;;5064773;28;20043;-50
2020/12/06 07:41:45;;;;;;;15.25;8.40;;;2.10;99.90;;;;;;5063897;28;20216;-48
2020/12/06 07:44:11;;;;;;;12.70;6.80;;;2.10;99.90;;;;;;5064060;28;20035;-48
2020/12/06 07:46:38;;;;;;;13.70;7.03;;;2.10;99.90;;;;;;5064819;28;20020;-49
2020/12/06 07:49:04;;;;;;;13.57;8.18;;;2.20;99.90;;;;;;5064393;28;20025;-49
2020/12/06 07:51:29;;;;;;;15.57;8.80;;;2.20;99.90;;;;;;5065797;28;20437;-50
2020/12/06 07:53:56;;;;;;;25.42;12.00;;;2.20;99.90;;;;;;5084725;28;20040;-50
2020/12/06 07:56:24;;;;;;;49.75;23.67;;;2.30;99.90;;;;;;5084837;28;20024;-48
2020/12/06 07:59:10;;;;;;;39.42;20.52;;;2.40;99.90;;;;;;5084955;28;20095;-48
2020/12/06 08:01:36;;;;;;;38.15;19.42;;;2.50;99.90;;;;;;5062359;28;20126;-50
2020/12/06 08:04:04;;;;;;;33.53;17.25;;;2.40;99.90;;;;;;5064204;28;20063;-49
2020/12/06 08:06:32;;;;;;;28.38;13.80;;;2.40;99.90;;;;;;5064471;28;20020;-50
2020/12/06 08:09:00;;;;;;;19.42;11.43;;;2.30;99.90;;;;;;5064958;28;20031;-49
2020/12/06 08:11:36;;;;;;;21.13;11.38;;;2.40;99.90;;;;;;5065287;28;20040;-52
2020/12/06 08:14:03;;;;;;;16.55;9.55;;;2.40;99.90;;;;;;5073887;28;20036;-50
2020/12/06 08:16:28;;;;;;;21.00;11.70;;;2.40;99.90;;;;;;5076062;28;20025;-51
2020/12/06 08:19:01;;;;;;;20.77;11.10;;;2.50;99.90;;;;;;5078532;28;20029;-51
2020/12/06 08:21:47;;;;;;;19.10;10.03;;;2.50;99.90;;;;;;5084056;28;20478;-49
2020/12/06 08:24:23;;;;;;;20.33;10.77;;;2.60;99.90;;;;;;5078399;28;20445;-50
2020/12/06 08:26:50;;;;;;;19.33;10.27;;;2.80;99.90;;;;;;5071161;28;20031;-52
2020/12/06 08:29:16;;;;;;;16.23;9.52;;;2.80;99.90;;;;;;5065453;28;20028;-51
2020/12/06 08:31:45;;;;;;;17.83;9.55;;;2.80;99.90;;;;;;5075843;28;20292;-51
2020/12/06 08:34:13;;;;;;;14.48;9.20;;;2.90;99.90;;;;;;5064592;28;20143;-50
2020/12/06 08:36:39;;;;;;;17.15;8.88;;;3.00;99.90;;;;;;5070461;28;20028;-52
2020/12/06 08:39:22;;;;;;;27.10;12.43;;;3.00;99.90;;;;;;5080155;28;20028;-48
2020/12/06 08:41:49;;;;;;;27.65;12.77;;;2.90;99.90;;;;;;5072328;28;20032;-52
2020/12/06 08:44:15;;;;;;;28.90;13.52;;;3.10;99.90;;;;;;5084954;28;20020;-49
2020/12/06 08:46:52;;;;;;;27.10;13.43;;;3.10;99.90;;;;;;5085872;28;20059;-50
2020/12/06 08:49:21;;;;;;;24.88;12.10;;;3.10;99.90;;;;;;5086223;28;20032;-49
2020/12/06 08:51:51;;;;;;;24.48;12.20;;;3.10;99.90;;;;;;5085729;28;20505;-52
2020/12/06 08:54:36;;;;;;;30.60;13.95;;;3.20;99.90;;;;;;5078428;28;20028;-49
2020/12/06 08:57:11;;;;;;;30.52;14.52;;;3.20;99.90;;;;;;5072541;28;20402;-52
2020/12/06 08:59:38;;;;;;;28.27;13.15;;;3.20;99.90;;;;;;5076470;28;20028;-50
2020/12/06 09:02:04;;;;;;;20.77;11.13;;;3.30;99.90;;;;;;5085716;28;20078;-48
2020/12/06 09:04:36;;;;;;;16.85;8.25;;;3.30;99.90;;;;;;5085386;28;20024;-48
2020/12/06 09:07:06;;;;;;;15.88;8.93;;;3.20;99.90;;;;;;5069169;28;20048;-49
2020/12/06 09:09:32;;;;;;;16.88;9.73;;;3.10;99.90;;;;;;5083907;28;20405;-49
2020/12/06 09:11:58;;;;;;;15.15;9.27;;;3.10;99.90;;;;;;5069100;28;20124;-50
2020/12/06 09:14:24;;;;;;;18.15;10.02;;;3.20;99.90;;;;;;5078124;28;20473;-51
2020/12/06 09:16:50;;;;;;;14.88;8.90;;;3.30;99.90;;;;;;5072391;28;20032;-48
2020/12/06 09:19:16;;;;;;;14.18;8.35;;;3.30;99.90;;;;;;5067344;28;20398;-51
2020/12/06 09:21:42;;;;;;;15.57;9.35;;;3.40;99.90;;;;;;5080700;28;20035;-49
2020/12/06 09:24:08;;;;;;;17.25;10.18;;;3.40;99.90;;;;;;5086178;28;20429;-48
2020/12/06 09:26:34;;;;;;;15.80;9.40;;;3.50;99.90;;;;;;5088393;28;20059;-49
2020/12/06 09:29:00;;;;;;;15.10;9.00;;;3.50;99.90;;;;;;5076896;28;20031;-49
2020/12/06 09:31:25;;;;;;;12.68;7.60;;;3.60;99.90;;;;;;5083146;28;20028;-50
2020/12/06 09:33:52;;;;;;;10.95;6.65;;;3.70;99.90;;;;;;5089103;28;20024;-51
2020/12/06 09:36:18;;;;;;;9.30;5.85;;;3.70;99.90;;;;;;5075883;28;20034;-48
2020/12/06 09:38:44;;;;;;;8.18;5.13;;;3.70;99.90;;;;;;5084887;28;20024;-48
2020/12/06 09:41:12;;;;;;;7.25;4.43;;;3.80;99.90;;;;;;5072334;28;20032;-49
2020/12/06 09:43:42;;;;;;;6.30;4.55;;;3.80;99.90;;;;;;5078123;28;20571;-52
2020/12/06 09:46:08;;;;;;;6.53;4.18;;;3.70;99.90;;;;;;5081023;28;20475;-49
2020/12/06 09:48:35;;;;;;;6.25;3.95;;;3.90;99.90;;;;;;5088570;28;20062;-52
2020/12/06 09:51:00;;;;;;;8.23;5.18;;;4.00;99.90;;;;;;5086633;28;20479;-51
2020/12/06 09:53:26;;;;;;;7.45;4.70;;;4.10;99.90;;;;;;5084340;28;20031;-52
2020/12/06 09:55:52;;;;;;;6.40;4.30;;;4.20;99.90;;;;;;5088752;28;20044;-50
2020/12/06 09:58:17;;;;;;;7.63;4.30;;;4.30;99.90;;;;;;5085871;28;20390;-50
2020/12/06 10:00:43;;;;;;;6.65;3.92;;;4.30;99.90;;;;;;5079483;28;20020;-49
2020/12/06 10:03:09;;;;;;;5.28;3.53;;;4.40;99.90;;;;;;5069648;28;20352;-51
2020/12/06 10:05:34;;;;;;;7.38;3.90;;;4.50;99.90;;;;;;5073649;28;20036;-52
2020/12/06 10:08:00;;;;;;;5.88;3.78;;;4.50;99.90;;;;;;5087127;28;20089;-48
2020/12/06 10:10:25;;;;;;;5.68;4.00;;;4.50;99.90;;;;;;5087155;28;20036;-49
2020/12/06 10:12:51;;;;;;;9.82;5.45;;;4.50;99.90;;;;;;5086792;28;20064;-50
2020/12/06 10:15:17;;;;;;;8.05;4.57;;;4.50;99.90;;;;;;5085192;28;20036;-51
2020/12/06 10:17:42;;;;;;;9.25;5.78;;;4.60;99.90;;;;;;5067963;28;20094;-49
2020/12/06 10:20:08;;;;;;;7.22;4.55;;;4.70;99.90;;;;;;5070830;28;20020;-51
2020/12/06 10:22:34;;;;;;;5.85;4.00;;;4.80;99.90;;;;;;5071365;28;20027;-49
2020/12/06 10:25:00;;;;;;;5.43;3.47;;;4.90;99.90;;;;;;5085580;28;20496;-49
2020/12/06 10:27:26;;;;;;;4.38;2.92;;;5.00;99.90;;;;;;5087147;28;20541;-52
2020/12/06 10:29:52;;;;;;;4.18;2.85;;;5.10;99.90;;;;;;5085212;28;20108;-51
2020/12/06 10:32:18;;;;;;;3.13;2.10;;;5.10;99.90;;;;;;5087818;28;20028;-49
2020/12/06 10:34:43;;;;;;;2.90;2.00;;;5.30;99.90;;;;;;5086204;28;20028;-48
2020/12/06 10:37:09;;;;;;;3.53;2.13;;;5.30;99.90;;;;;;5082309;28;20494;-53
2020/12/06 10:39:35;;;;;;;2.72;1.77;;;5.40;99.90;;;;;;5070783;28;20028;-48
2020/12/06 10:42:00;;;;;;;3.58;2.17;;;5.50;99.90;;;;;;5076633;28;20054;-49
2020/12/06 10:44:26;;;;;;;2.67;1.60;;;5.50;99.90;;;;;;5068808;28;20032;-52
2020/12/06 10:46:52;;;;;;;3.03;2.15;;;5.60;99.90;;;;;;5086799;28;20032;-51
2020/12/06 10:49:20;;;;;;;3.95;2.70;;;5.50;99.90;;;;;;5086552;28;20078;-52
2020/12/06 10:51:50;;;;;;;5.75;3.92;;;5.50;99.90;;;;;;5087242;28;20487;-51
2020/12/06 10:54:15;;;;;;;6.78;4.18;;;5.50;99.90;;;;;;5087244;28;20038;-51
2020/12/06 10:56:42;;;;;;;10.75;5.53;;;5.60;99.90;;;;;;5072531;28;20131;-48
2020/12/06 10:59:09;;;;;;;11.45;5.90;;;5.60;99.90;;;;;;5085013;28;20027;-50
2020/12/06 11:01:35;;;;;;;10.60;4.85;;;5.60;99.90;;;;;;5074154;28;20123;-49
2020/12/06 11:04:03;;;;;;;8.38;4.95;;;5.60;99.90;;;;;;5080297;28;20063;-48
2020/12/06 11:06:29;;;;;;;8.63;5.00;;;5.60;99.90;;;;;;5105795;28;20058;-51
2020/12/06 11:08:56;;;;;;;7.78;4.15;;;5.80;99.90;;;;;;5089194;28;20066;-49
2020/12/06 11:11:23;;;;;;;5.75;3.35;;;6.00;99.90;;;;;;5096886;28;20928;-51
2020/12/06 11:13:49;;;;;;;6.45;4.60;;;6.10;99.90;;;;;;5078685;28;20047;-53
2020/12/06 11:16:20;;;;;;;6.75;4.22;;;6.00;99.90;;;;;;5067314;28;20464;-52
2020/12/06 11:18:47;;;;;;;7.72;4.60;;;6.10;99.90;;;;;;5071404;28;20039;-50
2020/12/06 11:21:17;;;;;;;7.63;4.72;;;6.10;99.90;;;;;;5078207;28;20120;-50
2020/12/06 11:23:44;;;;;;;8.75;5.47;;;6.20;99.90;;;;;;5086880;28;20023;-50
2020/12/06 11:26:12;;;;;;;7.95;5.20;;;6.30;99.90;;;;;;5086865;28;20024;-51
2020/12/06 11:28:38;;;;;;;8.07;4.63;;;6.70;99.90;;;;;;5086389;28;20020;-49
2020/12/06 11:31:04;;;;;;;7.38;4.95;;;6.80;99.90;;;;;;5075429;28;20375;-51
2020/12/06 11:33:29;;;;;;;9.90;6.85;;;6.90;99.90;;;;;;5065689;28;20043;-50
2020/12/06 11:35:56;;;;;;;8.07;5.20;;;6.90;99.90;;;;;;5067604;28;20028;-49
2020/12/06 11:38:21;;;;;;;6.72;4.35;;;7.10;99.90;;;;;;5066300;28;20690;-50
2020/12/06 11:40:48;;;;;;;5.65;3.95;;;7.20;99.90;;;;;;5073475;28;20039;-50
2020/12/06 11:43:13;;;;;;;5.43;3.50;;;7.30;99.90;;;;;;5068561;28;20024;-52
2020/12/06 11:45:39;;;;;;;6.28;4.32;;;7.30;99.90;;;;;;5084978;28;20024;-48
2020/12/06 11:48:05;;;;;;;6.78;4.18;;;7.30;99.90;;;;;;5085398;28;20039;-50
2020/12/06 11:50:32;;;;;;;8.00;4.63;;;7.40;99.90;;;;;;5084281;28;20153;-51
2020/12/06 11:52:59;;;;;;;5.60;3.42;;;7.50;99.90;;;;;;5084927;28;20432;-49
2020/12/06 11:55:25;;;;;;;6.82;4.18;;;7.50;99.90;;;;;;5074546;28;20107;-49
2020/12/06 11:57:51;;;;;;;7.47;4.70;;;7.60;99.90;;;;;;5079089;28;20733;-50
2020/12/06 12:00:16;;;;;;;6.90;4.25;;;7.60;99.90;;;;;;5074092;28;20421;-51
2020/12/06 12:02:42;;;;;;;11.05;6.53;;;7.80;99.90;;;;;;5072567;28;20556;-49
2020/12/06 12:05:09;;;;;;;15.10;8.05;;;7.60;99.90;;;;;;5066113;28;20032;-50
2020/12/06 12:07:35;;;;;;;12.93;7.45;;;7.70;99.90;;;;;;5065851;28;20028;-49
2020/12/06 12:10:00;;;;;;;16.90;9.50;;;7.60;99.90;;;;;;5066375;28;20054;-51
2020/12/06 12:12:27;;;;;;;17.45;9.55;;;7.40;99.90;;;;;;5081501;28;20024;-52
2020/12/06 12:14:53;;;;;;;12.55;7.07;;;7.40;99.90;;;;;;5078146;28;20091;-50
2020/12/06 12:17:18;;;;;;;9.65;5.97;;;7.30;99.90;;;;;;5075611;28;20028;-49
2020/12/06 12:19:44;;;;;;;8.00;4.80;;;7.30;99.90;;;;;;5085515;28;20700;-48
2020/12/06 12:22:09;;;;;;;5.85;3.72;;;7.20;99.90;;;;;;5071973;28;20441;-51
2020/12/06 12:24:35;;;;;;;5.38;3.63;;;7.40;99.90;;;;;;5072507;28;20039;-49
2020/12/06 12:27:02;;;;;;;6.93;3.95;;;7.60;99.90;;;;;;5070183;28;20394;-48
2020/12/06 12:29:27;;;;;;;5.60;3.70;;;7.70;99.90;;;;;;5069416;28;20119;-48
2020/12/06 12:31:53;;;;;;;7.60;3.85;;;7.50;99.90;;;;;;5068968;28;20112;-48
2020/12/06 12:34:19;;;;;;;5.90;3.30;;;7.80;99.90;;;;;;5079324;28;20032;-49
2020/12/06 12:36:45;;;;;;;6.05;3.47;;;7.90;99.90;;;;;;5069339;28;20565;-48
2020/12/06 12:39:12;;;;;;;4.72;2.95;;;7.80;99.90;;;;;;5086950;28;20038;-52
2020/12/06 12:41:37;;;;;;;4.88;3.00;;;7.80;99.90;;;;;;5082486;28;20066;-49
2020/12/06 12:44:05;;;;;;;4.22;2.65;;;7.80;99.90;;;;;;5074384;28;20056;-49
2020/12/06 12:46:32;;;;;;;4.47;2.55;;;8.20;99.90;;;;;;5081640;28;20064;-49